Willkommen beim inoffiziellen Punkte-Rechner für das basketball.de (ehemals Crossover-online.de) US Managerspiel 2019/20!





Markiere deine Spieler über die Checkboxen in der letzten Spalte und erhalte unten die Gesamtpunktzahl deines Teams!
Spieler Team MIN FG FGA FT FTA RB AS ST BL TO PF PTS FP x
Dennis Schroder  LAL 39:25 11 24 2 2 6 8 1 2 2 2 25 37.5
Joe Ingles  UTA 39:23 6 14 2 2 3 14 3 0 4 3 20 36.5
Andre Drummond  LAL 30:28 10 15 7 8 8 3 2 1 2 4 27 36.5
Kentavious Caldwell-Pope  LAL 40:59 8 18 4 4 5 2 2 1 0 2 25 33.0
Kyle Kuzma  LAL 37:49 4 6 3 4 6 6 2 1 1 1 13 30.0
Ersan Ilyasova  UTA 31:34 7 11 0 0 5 0 4 2 1 6 20 30.0
Jordan Clarkson  UTA 46:07 11 27 0 0 5 4 1 0 2 3 27 26.5
Bojan Bogdanovic  UTA 39:35 5 15 6 6 3 2 2 0 2 1 19 19.5
Royce O'Neale  UTA 39:34 6 14 0 0 8 4 0 0 2 1 14 19.5
Montrezl Harrell  LAL 20:39 5 7 2 2 7 2 0 0 2 0 12 17.0
Markieff Morris  LAL 36:49 4 12 0 0 12 3 0 1 4 1 10 16.0
Nikola Vucevic  CHI 00:00 4 5 0 0 2 1 0 0 0 1 9 11.5
Russell Westbrook  WAS 00:00 0 0 0 0 4 5 1 0 1 1 0 11.0
Talen Horton-Tucker  LAL 22:23 3 5 2 3 5 1 0 0 1 1 8 10.5
Bradley Beal  WAS 00:00 4 5 1 1 1 0 0 0 0 0 9 9.5
Juwan Morgan  UTA 19:49 3 4 0 0 5 2 0 0 1 4 6 9.5
Jerami Grant  DET 00:00 3 6 0 0 0 0 1 1 0 0 6 8.5
Georges Niang  UTA 21:52 4 12 0 0 5 2 0 0 2 2 9 8.0
Patrick Williams  CHI 00:00 2 3 0 0 1 1 0 0 0 0 5 7.0
Collin Sexton  CLE 00:00 1 3 2 2 3 1 0 1 2 1 5 6.0
Alex Caruso  LAL 19:21 2 2 0 0 1 1 1 0 1 1 4 6.0
Isaac Okoro  CLE 00:00 2 2 0 0 0 0 0 0 0 0 5 5.0
Kevin Love  CLE 00:00 1 3 0 0 3 0 0 0 0 0 3 5.0
Ben McLemore  LAL 10:29 1 3 0 0 2 0 0 2 1 2 3 5.0
Darius Garland  CLE 00:00 1 2 0 0 0 2 0 0 0 0 2 4.5
Rui Hachimura  WAS 00:00 0 2 1 2 1 0 1 1 0 0 1 4.5
Cory Joseph  DET 00:00 1 2 0 0 1 0 1 0 0 1 2 4.0
Deni Avdija  WAS 00:00 0 0 0 0 2 0 0 1 0 0 0 4.0
Trent Forrest  UTA 11:47 0 1 0 0 1 2 0 0 0 0 0 3.5
Jarrett Allen  CLE 00:00 0 3 2 2 3 0 0 0 0 0 2 3.5
Garrett Temple  CHI 00:00 1 1 0 0 1 0 0 0 0 0 2 3.0
Coby White  CHI 00:00 0 3 0 0 0 2 1 0 0 1 0 3.0
Ish Smith  WAS 00:00 0 0 0 0 1 1 0 0 0 0 0 2.5
Troy Brown Jr.  CHI 00:00 1 1 0 0 0 0 0 0 0 0 2 2.0
Alex Len  WAS 00:00 4 4 0 0 0 0 0 0 3 1 8 1.5
Lauri Markkanen  CHI 00:00 0 0 0 0 1 0 0 0 0 0 0 1.0
Daniel Theis  CHI 00:00 0 3 0 0 1 1 0 0 0 0 0 1.0
Jarrell Brantley  UTA 06:38 0 0 0 0 0 1 0 1 1 1 0 1.0
Miye Oni  UTA 02:09 0 0 0 0 1 0 0 0 0 0 0 1.0
Devon Dotson  CHI 00:00 0 0 0 0 0 0 0 0 0 0 0 0.0
Ryan Arcidiacono  CHI 00:00 0 0 0 0 0 0 0 0 0 0 0 0.0
Al-Farouq Aminu  CHI 00:00 0 0 0 0 0 0 0 0 0 0 0 0.0
Garrison Mathews  WAS 00:00 0 0 0 0 0 0 0 0 0 0 0 0.0
Cristiano Felicio  CHI 00:00 0 0 0 0 0 0 0 0 0 0 0 0.0
Javonte Green  CHI 00:00 0 0 0 0 0 0 0 0 0 0 0 0.0
Tomas Satoransky  CHI 00:00 0 0 0 0 0 0 0 0 0 0 0 0.0
Dylan Windler  CLE 00:00 0 0 0 0 0 0 0 0 0 0 0 0.0
Denzel Valentine  CHI 00:00 0 0 0 0 0 0 0 0 0 0 0 0.0
Thaddeus Young  CHI 00:00 0 0 0 0 0 0 0 0 0 0 0 0.0
Zach LaVine  CHI 00:00 0 0 0 0 0 0 0 0 0 0 0 0.0
Adam Mokoka  CHI 00:00 0 0 0 0 0 0 0 0 0 0 0 0.0
Larry Nance Jr.  CLE 00:00 0 0 0 0 0 0 0 0 0 0 0 0.0
Matthew Dellavedova  CLE 00:00 0 0 0 0 0 0 0 0 0 0 0 0.0
Isaiah Hartenstein  CLE 00:00 0 0 0 0 0 0 0 0 0 0 0 0.0
Damyean Dotson  CLE 00:00 0 0 0 0 0 0 0 0 0 0 0 0.0
Dean Wade  CLE 00:00 0 0 0 0 0 0 0 0 0 0 0 0.0
Mfiondu Kabengele  CLE 00:00 0 0 0 0 0 0 0 0 0 0 0 0.0
Cedi Osman  CLE 00:00 0 0 0 0 0 0 0 0 0 0 0 0.0
Taurean Prince  CLE 00:00 0 0 0 0 0 0 0 0 0 0 0 0.0
Lamar Stevens  CLE 00:00 0 0 0 0 0 0 0 0 0 0 0 0.0
Brodric Thomas  CLE 00:00 0 0 0 0 0 0 0 0 0 0 0 0.0
Davis Bertans  WAS 00:00 0 0 0 0 0 0 0 0 0 0 0 0.0
Daniel Gafford  WAS 00:00 0 0 0 0 0 0 0 0 0 0 0 0.0
Elijah Hughes  UTA 00:00 0 0 0 0 0 0 0 0 0 0 0 0.0
Alfonzo McKinnie  LAL 00:00 0 0 0 0 0 0 0 0 0 0 0 0.0
Marc Gasol  LAL 00:00 0 0 0 0 0 0 0 0 0 0 0 0.0
Devontae Cacok  LAL 00:00 0 0 0 0 0 0 0 0 0 0 0 0.0
Kostas Antetokounmpo  LAL 00:00 0 0 0 0 0 0 0 0 0 0 0 0.0
Jordan Bell  WAS 00:00 0 0 0 0 0 0 0 0 0 0 0 0.0
Isaac Bonga  WAS 00:00 0 0 0 0 0 0 0 0 0 0 0 0.0
Anthony Gill  WAS 00:00 0 0 0 0 0 0 0 0 0 0 0 0.0
Chandler Hutchison  WAS 00:00 0 0 0 0 0 0 0 0 0 0 0 0.0
Robin Lopez  WAS 00:00 0 0 0 0 0 0 0 0 0 0 0 0.0
Raul Neto  WAS 00:00 0 0 0 0 0 0 0 0 0 0 0 0.0
Cassius Winston  WAS 00:00 0 0 0 0 0 0 0 0 0 0 0 0.0
Dennis Smith Jr.  DET 00:00 0 0 0 0 0 0 0 0 0 0 0 0.0
Frank Jackson  DET 00:00 0 0 0 0 0 0 0 0 0 0 0 0.0
Rodney McGruder  DET 00:00 0 0 0 0 0 0 0 0 0 0 0 0.0
Killian Hayes  DET 00:00 0 0 0 0 0 0 0 0 0 0 0 0.0
Sekou Doumbouya  DET 00:00 0 0 0 0 0 0 0 0 0 0 0 0.0
Deividas Sirvydis  DET 00:00 0 0 0 0 0 0 0 0 0 0 0 0.0
Jahlil Okafor  DET 00:00 0 0 0 0 0 0 0 0 0 0 0 0.0
Saben Lee  DET 00:00 0 0 0 0 0 0 0 0 0 0 0 0.0
Thomas Bryant  WAS 00:00 0 0 0 0 0 0 0 0 0 0 0 0.0
Hamidou Diallo  DET 00:00 0 0 0 0 0 0 0 0 0 0 0 0.0
Tyler Cook  DET 00:00 0 0 0 0 0 0 0 0 0 0 0 0.0
Wayne Ellington  DET 00:00 0 0 0 0 0 0 0 0 0 0 0 0.0
Saddiq Bey  DET 00:00 0 2 0 0 1 0 0 0 0 0 0 0.0
Wesley Matthews  LAL 06:39 0 1 0 0 0 0 0 0 0 0 0 -0.5
Matt Thomas  UTA 06:33 0 3 0 0 1 0 0 0 0 0 0 -0.5
Mason Plumlee  DET 00:00 0 0 0 0 2 0 0 0 1 1 0 -0.5
Isaiah Stewart  DET 00:00 0 1 0 0 0 0 0 0 0 1 0 -1.0
Josh Jackson  DET 00:00 1 6 0 0 1 0 0 0 1 0 2 -1.5
Statistiken letzte Nacht: Du hast mit 0 Spieler(n) 0 FP (0 FP / Spieler) erzielt.




Impressum · Datenschutzerklärung